Weather forecast for Mishelevka (Мишелевка)

Russia, 412 m
N52.890, E103.197


Sounding

Red line — air temperature ˚C.
Blue line — thermal bubble temperature ˚C.
Green line — dew point temperature ˚C.
Wind speed is in meters per second.

Table forecast

GFS 0.25˚ model

temp. wind gust humid. clouds prec. press. hpbl
Mon18 00:00 -21 112.0 ese 3 5 76 70 0.0 1039 129
03:00 -21 123.0 ese 3 6 77 35 0.0 1038 135
06:00 -21 121.0 ese 2 4 77 0 0.0 1036 88
09:00 -22 112.0 ese 3 5 75 0 0.0 1036 129
12:00 -19 127.0 se 3 5 69 0 0.0 1033 248
15:00 -15 118.0 ese 4 6 67 0 0.0 1029 338
18:00 -16 116.0 ese 3 6 79 0 0.0 1027 123
21:00 -17 106.0 ese 3 8 75 0 0.0 1028 173
 
Tue19 00:00 -17 116.0 ese 3 9 75 45 0.0 1025 201
03:00 -16 108.0 ese 4 9 83 73 0.0 1024 263
06:00 -15 108.0 ese 4 9 82 100 0.0 1022 268
09:00 -15 109.0 ese 3 7 83 100 0.0 1022 218
12:00 -14 121.0 ese 3 5 78 100 0.0 1022 270
15:00 -11 144.0 se 2 4 77 92 0.0 1021 332
18:00 -13 131.0 se 2 3 86 2 0.0 1022 23
21:00 -14 124.0 se 2 3 89 2 0.0 1023 44
 
Wed20 00:00 -14 121.0 ese 2 3 91 68 0.0 1022 76
03:00 -13 121.0 ese 3 7 93 84 0.0 1021 183
06:00 -12 115.0 ese 4 9 91 100 0.0 1018 242
09:00 -11 120.0 ese 4 11 89 100 0.0 1016 290
12:00 -9 135.0 se 5 11 80 100 0.0 1014 381
15:00 -8 126.0 se 3 5 78 100 0.0 1012 339
18:00 -10 68.0 ene 1 1 83 100 0.0 1014 21
21:00 -10 304.0 nw 3 6 91 99 0.0 1015 139
 
Thu21 00:00 -11 314.0 nw 5 10 90 100 0.0 1017 440
03:00 -11 327.0 nnw 6 11 92 100 0.6 1020 633
06:00 -12 326.0 nw 6 10 90 100 0.4 1022 654
09:00 -13 313.0 nw 5 9 84 100 0.6 1025 660
12:00 -14 329.0 nnw 6 11 73 100 0.0 1027 716
15:00 -14 325.0 nw 6 9 69 100 0.0 1028 834
18:00 -15 328.0 nnw 3 7 80 100 0.0 1029 228
21:00 -17 322.0 nw 3 8 84 96 0.0 1032 308
 
Fri22 00:00 -18 293.0 wnw 3 4 87 61 0.0 1034 98
03:00 -19 280.0 w 2 3 87 40 0.0 1035 44
06:00 -19 265.0 w 1 2 86 0 0.0 1035 20
09:00 -19 180.0 s 2 2 88 0 0.0 1035 21
12:00 -17 138.0 se 2 4 81 2 0.0 1034 144
15:00 -14 126.0 se 3 5 71 40 0.0 1032 350
18:00 -15 118.0 ese 2 3 79 100 0.0 1032 49
21:00 -15 119.0 ese 2 4 80 100 0.0 1032 122
 

0.016 s